createdAt,value
2023-02-28T00:00:38.136Z,4.27
2023-02-28T00:03:05.412Z,5.57
2023-02-28T00:05:32.236Z,5.83
2023-02-28T00:07:59.048Z,4.93
2023-02-28T00:10:30.626Z,5.27
2023-02-28T00:13:02.377Z,4.80
2023-02-28T00:15:29.340Z,5.87
2023-02-28T00:17:56.419Z,4.73
2023-02-28T00:20:23.798Z,3.63
2023-02-28T00:22:52.773Z,4.97
2023-02-28T00:25:22.616Z,3.93
2023-02-28T00:27:49.871Z,3.40
2023-02-28T00:30:21.929Z,3.13
2023-02-28T00:32:49.375Z,7.67
2023-02-28T00:35:16.659Z,4.53
2023-02-28T00:37:44.225Z,5.17
2023-02-28T00:40:13.085Z,7.13
2023-02-28T00:42:40.298Z,5.23
2023-02-28T00:45:09.181Z,4.47
2023-02-28T00:47:38.410Z,7.43
2023-02-28T00:50:06.252Z,4.53
2023-02-28T00:52:33.020Z,4.13
2023-02-28T00:54:59.780Z,4.03
2023-02-28T00:57:27.295Z,5.90
2023-02-28T00:59:55.399Z,6.43
2023-02-28T01:02:23.609Z,5.67
2023-02-28T01:04:53.120Z,5.30
2023-02-28T01:07:20.153Z,6.10
2023-02-28T01:09:47.128Z,5.53
2023-02-28T01:12:13.941Z,4.87
2023-02-28T01:14:40.678Z,3.80
2023-02-28T01:17:07.598Z,3.90
2023-02-28T01:19:34.993Z,4.53
2023-02-28T01:22:05.339Z,4.67
2023-02-28T01:24:34.297Z,5.10
2023-02-28T01:27:01.254Z,6.40
2023-02-28T01:29:28.018Z,5.13
2023-02-28T01:31:54.839Z,5.07
2023-02-28T01:34:21.782Z,7.80
2023-02-28T01:36:48.521Z,5.73
2023-02-28T01:39:15.396Z,3.93
2023-02-28T01:41:42.492Z,5.70
2023-02-28T01:44:47.822Z,3.43
2023-02-28T01:47:15.471Z,7.47
2023-02-28T01:49:42.844Z,6.03
2023-02-28T01:52:15.974Z,5.13
2023-02-28T01:54:42.757Z,6.00
2023-02-28T01:57:21.681Z,4.90
2023-02-28T01:59:51.421Z,5.23
2023-02-28T02:02:21.454Z,8.33
2023-02-28T02:05:26.314Z,4.57
2023-02-28T02:08:01.286Z,5.23
2023-02-28T02:10:35.198Z,7.37
2023-02-28T02:13:14.881Z,7.43
2023-02-28T02:15:55.220Z,5.87
2023-02-28T02:18:28.152Z,4.33
2023-02-28T02:21:23.679Z,4.47
2023-02-28T02:24:14.842Z,4.73
2023-02-28T02:27:14.126Z,3.63
2023-02-28T02:30:11.790Z,3.77
2023-02-28T02:33:08.150Z,3.97
2023-02-28T02:36:13.005Z,5.30
2023-02-28T02:38:49.063Z,3.63
2023-02-28T02:41:35.695Z,4.33
2023-02-28T02:44:25.605Z,3.20
2023-02-28T02:47:04.291Z,6.17
2023-02-28T02:49:33.894Z,3.80
2023-02-28T02:52:09.723Z,4.50
2023-02-28T02:54:44.236Z,5.57
2023-02-28T02:57:20.923Z,6.30
2023-02-28T02:59:50.296Z,4.40
2023-02-28T03:02:18.789Z,4.27
2023-02-28T03:04:52.727Z,3.80
2023-02-28T03:07:21.806Z,4.00
2023-02-28T03:09:53.692Z,5.60
2023-02-28T03:12:21.924Z,4.20
2023-02-28T03:15:03.544Z,4.80
2023-02-28T03:17:48.694Z,3.47
2023-02-28T03:20:28.938Z,6.33
2023-02-28T03:23:22.676Z,7.23
2023-02-28T03:26:23.592Z,3.20
2023-02-28T03:29:18.199Z,5.33
2023-02-28T03:32:22.489Z,4.63
2023-02-28T03:35:06.960Z,5.13
2023-02-28T03:37:38.094Z,5.57
2023-02-28T03:40:18.120Z,5.90
2023-02-28T03:42:49.512Z,5.83
2023-02-28T03:45:26.730Z,5.27
2023-02-28T03:48:14.233Z,5.27
2023-02-28T03:50:43.920Z,6.70
2023-02-28T03:53:20.415Z,4.70
2023-02-28T03:55:51.458Z,5.27
2023-02-28T03:58:48.287Z,4.57
2023-02-28T04:01:30.691Z,11.03
2023-02-28T04:03:57.636Z,6.07
2023-02-28T04:06:25.148Z,5.20
2023-02-28T04:08:52.468Z,6.70
2023-02-28T04:11:37.326Z,5.97
2023-02-28T04:14:08.776Z,4.50
2023-02-28T04:16:38.855Z,5.77
2023-02-28T04:19:07.324Z,5.33
2023-02-28T04:21:40.479Z,6.23
2023-02-28T04:24:15.202Z,4.73
2023-02-28T04:26:45.037Z,5.00
2023-02-28T04:29:14.213Z,5.13
2023-02-28T04:31:41.259Z,6.80
2023-02-28T04:34:08.366Z,4.20
2023-02-28T04:36:35.268Z,4.60
2023-02-28T04:39:02.224Z,4.63
2023-02-28T04:41:32.113Z,5.07
2023-02-28T04:43:59.475Z,3.50
2023-02-28T04:46:26.351Z,3.50
2023-02-28T04:48:54.622Z,4.23
2023-02-28T04:51:21.628Z,7.80
2023-02-28T04:53:48.695Z,5.27
2023-02-28T04:56:17.743Z,5.53
2023-02-28T04:58:45.176Z,3.63
2023-02-28T05:01:33.388Z,5.73
2023-02-28T05:04:02.512Z,3.70
2023-02-28T05:06:31.946Z,3.73
2023-02-28T05:08:59.575Z,3.23
2023-02-28T05:11:35.634Z,4.77
2023-02-28T05:14:04.228Z,5.27
2023-02-28T05:16:32.061Z,4.07
2023-02-28T05:18:59.443Z,5.03
2023-02-28T05:21:29.809Z,4.60
2023-02-28T05:23:58.676Z,4.33
2023-02-28T05:26:25.704Z,4.07
2023-02-28T05:28:52.807Z,7.30
2023-02-28T05:31:19.680Z,4.37
2023-02-28T05:33:46.587Z,5.27
2023-02-28T05:36:13.474Z,8.33
2023-02-28T05:38:40.290Z,7.10
2023-02-28T05:41:11.542Z,4.40
2023-02-28T05:43:39.052Z,3.97
2023-02-28T05:46:07.234Z,5.57
2023-02-28T05:48:38.631Z,5.07
2023-02-28T05:51:06.746Z,3.90
2023-02-28T05:53:33.773Z,3.57
2023-02-28T05:56:00.990Z,6.00
2023-02-28T05:58:31.554Z,4.50
2023-02-28T06:01:00.217Z,5.03
2023-02-28T06:03:27.371Z,3.03
2023-02-28T06:05:54.775Z,4.23
2023-02-28T06:08:21.751Z,3.63
2023-02-28T06:10:48.785Z,5.93
2023-02-28T06:13:16.167Z,5.30
2023-02-28T06:15:43.136Z,7.00
2023-02-28T06:18:09.912Z,6.43
2023-02-28T06:20:37.374Z,4.60
2023-02-28T06:23:04.556Z,4.63
2023-02-28T06:25:31.726Z,4.07
2023-02-28T06:27:58.714Z,3.83
2023-02-28T06:30:27.633Z,4.33
2023-02-28T06:32:55.605Z,5.43
2023-02-28T06:35:23.148Z,4.90
2023-02-28T06:37:49.909Z,4.63
2023-02-28T06:40:16.980Z,4.23
2023-02-28T06:42:44.086Z,4.87
2023-02-28T06:45:12.051Z,9.27
2023-02-28T06:47:40.695Z,5.60
2023-02-28T06:50:12.835Z,4.13
2023-02-28T06:52:40.001Z,4.43
2023-02-28T06:55:08.749Z,3.87
2023-02-28T06:57:36.513Z,5.03
2023-02-28T07:00:08.680Z,3.83
2023-02-28T07:02:38.548Z,4.37
2023-02-28T07:05:06.991Z,3.77
2023-02-28T07:07:34.284Z,3.83
2023-02-28T07:10:01.271Z,4.20
2023-02-28T07:12:28.013Z,3.93
2023-02-28T07:14:56.789Z,4.50
2023-02-28T07:17:23.600Z,3.53
2023-02-28T07:19:50.454Z,6.13
2023-02-28T07:22:17.204Z,3.70
2023-02-28T07:24:43.949Z,6.07
2023-02-28T07:27:10.777Z,5.60
2023-02-28T07:29:38.246Z,4.17
2023-02-28T07:32:05.395Z,6.60
2023-02-28T07:34:35.252Z,5.63
2023-02-28T07:37:04.693Z,6.77
2023-02-28T07:39:31.508Z,6.93
2023-02-28T07:41:58.327Z,6.13
2023-02-28T07:44:27.642Z,4.93
2023-02-28T07:46:54.413Z,6.80
2023-02-28T07:49:21.154Z,6.77
2023-02-28T07:51:47.995Z,5.97
2023-02-28T07:54:14.767Z,6.37
2023-02-28T07:56:41.620Z,6.93
2023-02-28T07:59:08.429Z,5.53
2023-02-28T08:01:35.210Z,5.27
2023-02-28T08:04:01.962Z,7.30
2023-02-28T08:06:28.678Z,6.20
2023-02-28T08:08:57.049Z,5.07
2023-02-28T08:11:24.133Z,6.87
2023-02-28T08:13:51.389Z,9.60
2023-02-28T08:16:23.013Z,5.10
2023-02-28T08:18:53.803Z,7.37
2023-02-28T08:21:21.398Z,6.20
2023-02-28T08:23:52.032Z,8.10
2023-02-28T08:26:20.126Z,6.43
2023-02-28T08:28:47.303Z,8.17
2023-02-28T08:31:16.709Z,7.33
2023-02-28T08:33:45.477Z,5.57
2023-02-28T08:36:12.956Z,6.23
2023-02-28T08:38:40.061Z,5.80
2023-02-28T08:41:11.152Z,7.70
2023-02-28T08:43:38.998Z,7.77
2023-02-28T08:46:06.711Z,5.60
2023-02-28T08:48:36.208Z,5.43
2023-02-28T08:51:10.170Z,4.53
2023-02-28T08:53:38.327Z,7.93
2023-02-28T08:56:10.746Z,6.00
2023-02-28T08:58:38.235Z,5.73
2023-02-28T09:01:15.860Z,5.53
2023-02-28T09:03:43.570Z,4.43
2023-02-28T09:06:11.393Z,6.43
2023-02-28T09:08:38.554Z,4.90
2023-02-28T09:11:05.953Z,6.20
2023-02-28T09:13:33.663Z,4.10
2023-02-28T09:16:02.130Z,4.30
2023-02-28T09:18:29.088Z,5.63
2023-02-28T09:20:56.079Z,4.57
2023-02-28T09:23:23.079Z,3.83
2023-02-28T09:25:53.310Z,2.80
2023-02-28T09:28:20.945Z,4.57
2023-02-28T09:30:53.340Z,2.77
2023-02-28T09:33:21.949Z,2.73
2023-02-28T09:35:50.048Z,3.57
2023-02-28T09:38:17.812Z,3.63
2023-02-28T09:40:52.027Z,3.00
2023-02-28T09:43:23.217Z,2.77
2023-02-28T09:46:01.743Z,5.67
2023-02-28T09:48:40.750Z,2.10
2023-02-28T09:51:28.186Z,1.90
2023-02-28T09:54:01.272Z,3.90
2023-02-28T09:56:39.919Z,3.20
2023-02-28T09:59:12.539Z,2.53
2023-02-28T10:01:51.230Z,1.73
2023-02-28T10:04:40.244Z,2.33
2023-02-28T10:07:22.640Z,4.13
2023-02-28T10:09:56.209Z,4.17
2023-02-28T10:12:23.371Z,3.50
2023-02-28T10:14:53.537Z,2.77
2023-02-28T10:17:27.671Z,3.37
2023-02-28T10:19:57.246Z,2.43
2023-02-28T10:22:59.836Z,3.00
2023-02-28T10:25:29.693Z,2.63
2023-02-28T10:28:08.444Z,2.07
2023-02-28T10:30:38.907Z,4.43
2023-02-28T10:33:05.756Z,2.97
2023-02-28T10:35:34.730Z,1.87
2023-02-28T10:38:11.109Z,2.27
2023-02-28T10:40:37.827Z,2.43
2023-02-28T10:43:07.186Z,2.13
2023-02-28T10:45:38.158Z,3.23
2023-02-28T10:48:39.741Z,1.90
2023-02-28T10:51:09.201Z,3.47
2023-02-28T10:54:00.114Z,2.80
2023-02-28T10:56:28.585Z,2.33
2023-02-28T10:59:24.558Z,2.20
2023-02-28T11:01:53.790Z,2.10
2023-02-28T11:04:23.689Z,3.60
2023-02-28T11:07:22.232Z,2.43
2023-02-28T11:09:53.741Z,2.43
2023-02-28T11:12:50.807Z,3.17
2023-02-28T11:15:26.830Z,4.00
2023-02-28T11:18:05.468Z,3.07
2023-02-28T11:20:34.648Z,3.77
2023-02-28T11:23:04.979Z,1.97
2023-02-28T11:25:34.558Z,3.17
2023-02-28T11:28:07.343Z,2.47
2023-02-28T11:30:43.194Z,2.17
2023-02-28T11:33:21.726Z,2.00
2023-02-28T11:35:50.913Z,3.33
2023-02-28T11:38:17.829Z,2.00
2023-02-28T11:40:48.312Z,3.83
2023-02-28T11:43:40.281Z,3.07
2023-02-28T11:46:09.745Z,2.43
2023-02-28T11:49:09.356Z,2.53
2023-02-28T11:51:53.651Z,1.70
2023-02-28T11:54:27.394Z,1.90
2023-02-28T11:57:15.188Z,5.70
2023-02-28T12:00:20.594Z,3.83
2023-02-28T12:02:53.305Z,2.63
2023-02-28T12:05:29.091Z,2.90
2023-02-28T12:08:21.654Z,1.60
2023-02-28T12:11:12.595Z,1.90
2023-02-28T12:13:49.517Z,1.97
2023-02-28T12:16:33.931Z,2.23
2023-02-28T12:19:00.637Z,2.43
2023-02-28T12:22:06.427Z,2.00
2023-02-28T12:24:44.891Z,2.10
2023-02-28T12:27:16.908Z,2.17
2023-02-28T12:29:55.665Z,2.93
2023-02-28T12:32:33.188Z,4.10
2023-02-28T12:35:09.460Z,1.90
2023-02-28T12:37:47.849Z,2.17
2023-02-28T12:40:19.807Z,3.77
2023-02-28T12:42:59.292Z,2.03
2023-02-28T12:45:51.960Z,3.10
2023-02-28T12:48:30.228Z,4.57
2023-02-28T12:50:57.937Z,1.63
2023-02-28T12:53:34.256Z,2.27
2023-02-28T12:56:09.221Z,4.73
2023-02-28T12:59:11.743Z,2.43
2023-02-28T13:01:59.740Z,3.13
2023-02-28T13:04:45.003Z,2.13
2023-02-28T13:07:32.963Z,2.47
2023-02-28T13:10:03.173Z,4.20
2023-02-28T13:12:30.166Z,3.07
2023-02-28T13:15:16.051Z,3.07
2023-02-28T13:17:43.025Z,2.77
2023-02-28T13:20:19.250Z,2.13
2023-02-28T13:22:48.680Z,1.93
2023-02-28T13:25:42.660Z,4.20
2023-02-28T13:28:35.176Z,2.53
2023-02-28T13:31:04.961Z,2.40
2023-02-28T13:33:36.321Z,3.40
2023-02-28T13:36:15.373Z,3.07
2023-02-28T13:38:43.728Z,3.20
2023-02-28T13:41:43.367Z,2.40
2023-02-28T13:44:13.139Z,2.10
2023-02-28T13:46:49.646Z,4.30
2023-02-28T13:49:33.783Z,2.73
2023-02-28T13:52:09.657Z,3.10
2023-02-28T13:55:05.900Z,3.50
2023-02-28T13:57:56.758Z,2.33
2023-02-28T14:01:05.625Z,3.60
2023-02-28T14:03:47.701Z,7.33
2023-02-28T14:06:17.907Z,3.63
2023-02-28T14:09:01.543Z,3.13
2023-02-28T14:11:34.432Z,3.63
2023-02-28T14:14:02.922Z,3.63
2023-02-28T14:16:51.117Z,2.70
2023-02-28T14:19:30.280Z,2.40
2023-02-28T14:22:10.021Z,2.13
2023-02-28T14:25:10.303Z,2.30
2023-02-28T14:27:45.207Z,2.50
2023-02-28T14:30:42.678Z,2.87
2023-02-28T14:33:31.076Z,3.90
2023-02-28T14:36:23.927Z,3.83
2023-02-28T14:39:00.516Z,3.33
2023-02-28T14:41:37.893Z,2.40
2023-02-28T14:44:21.698Z,3.37
2023-02-28T14:46:54.927Z,2.60
2023-02-28T14:49:30.023Z,2.97
2023-02-28T14:52:19.948Z,3.60
2023-02-28T14:54:52.259Z,2.30
2023-02-28T14:57:40.012Z,6.90
2023-02-28T15:00:26.717Z,2.57
2023-02-28T15:02:55.071Z,2.50
2023-02-28T15:05:29.677Z,3.17
2023-02-28T15:08:06.358Z,2.60
2023-02-28T15:10:34.910Z,3.00
2023-02-28T15:13:07.851Z,3.70
2023-02-28T15:15:40.734Z,1.90
2023-02-28T15:18:32.370Z,3.07
2023-02-28T15:21:06.229Z,3.07
2023-02-28T15:23:34.461Z,2.30
2023-02-28T15:26:01.632Z,3.20
2023-02-28T15:28:29.590Z,2.20
2023-02-28T15:31:04.717Z,2.33
2023-02-28T15:33:33.597Z,2.40
2023-02-28T15:36:21.888Z,2.40
2023-02-28T15:38:52.788Z,2.23
2023-02-28T15:41:26.605Z,3.60
2023-02-28T15:44:35.390Z,2.33
2023-02-28T15:47:15.473Z,2.43
2023-02-28T15:49:55.166Z,2.27
2023-02-28T15:52:32.620Z,2.37
2023-02-28T15:55:00.176Z,2.43
2023-02-28T15:57:30.182Z,4.67
2023-02-28T16:00:00.892Z,3.30
2023-02-28T16:02:32.929Z,3.00
2023-02-28T16:05:14.238Z,4.07
2023-02-28T16:07:43.703Z,5.63
2023-02-28T16:10:15.210Z,2.80
2023-02-28T16:12:42.720Z,4.10
2023-02-28T16:15:26.936Z,3.50
2023-02-28T16:17:55.094Z,6.70
2023-02-28T16:20:28.266Z,3.77
2023-02-28T16:22:55.439Z,2.97
2023-02-28T16:25:28.245Z,2.70
2023-02-28T16:27:56.150Z,2.10
2023-02-28T16:30:25.624Z,2.27
2023-02-28T16:32:53.537Z,2.07
2023-02-28T16:35:21.667Z,2.37
2023-02-28T16:37:48.842Z,2.30
2023-02-28T16:40:18.038Z,4.00
2023-02-28T16:42:46.889Z,3.97
2023-02-28T16:45:25.579Z,3.00
2023-02-28T16:47:53.275Z,4.27
2023-02-28T16:50:26.096Z,4.27
2023-02-28T16:52:56.014Z,3.17
2023-02-28T16:55:24.929Z,3.53
2023-02-28T16:57:55.079Z,4.07
2023-02-28T17:00:22.386Z,3.07
2023-02-28T17:02:49.450Z,2.70
2023-02-28T17:05:16.649Z,3.23
2023-02-28T17:07:44.103Z,3.40
2023-02-28T17:10:17.570Z,4.23
2023-02-28T17:12:44.838Z,3.30
2023-02-28T17:15:13.696Z,5.43
2023-02-28T17:17:40.930Z,4.57
2023-02-28T17:20:12.341Z,5.07
2023-02-28T17:22:39.749Z,5.37
2023-02-28T17:25:07.438Z,5.07
2023-02-28T17:27:34.295Z,5.63
2023-02-28T17:30:01.936Z,6.40
2023-02-28T17:32:28.882Z,6.27
2023-02-28T17:34:55.735Z,6.33
2023-02-28T17:37:22.519Z,4.80
2023-02-28T17:39:49.283Z,4.87
2023-02-28T17:42:15.982Z,4.47
2023-02-28T17:44:42.747Z,3.80
2023-02-28T17:47:13.032Z,4.90
2023-02-28T17:49:39.857Z,5.97
2023-02-28T17:52:06.603Z,5.77
2023-02-28T17:54:33.414Z,4.43
2023-02-28T17:57:00.258Z,4.50
2023-02-28T17:59:34.389Z,5.37
2023-02-28T18:02:02.123Z,4.00
2023-02-28T18:04:29.006Z,4.00
2023-02-28T18:07:00.697Z,4.67
2023-02-28T18:09:28.077Z,4.20
2023-02-28T18:11:57.031Z,4.43
2023-02-28T18:14:26.337Z,3.47
2023-02-28T18:16:55.095Z,4.30
2023-02-28T18:19:22.129Z,4.17
2023-02-28T18:21:51.276Z,5.27
2023-02-28T18:24:19.650Z,3.43
2023-02-28T18:26:46.950Z,4.17
2023-02-28T18:29:22.532Z,3.93
2023-02-28T18:31:49.959Z,5.00
2023-02-28T18:34:17.396Z,5.60
2023-02-28T18:36:47.033Z,6.10
2023-02-28T18:39:14.760Z,4.10
2023-02-28T18:41:41.793Z,5.93
2023-02-28T18:44:19.159Z,4.20
2023-02-28T18:46:47.168Z,3.43
2023-02-28T18:49:14.109Z,4.50
2023-02-28T18:51:44.983Z,4.77
2023-02-28T18:54:13.523Z,5.80
2023-02-28T18:56:40.738Z,5.47
2023-02-28T18:59:07.547Z,5.30
2023-02-28T19:01:34.610Z,3.93
2023-02-28T19:04:02.144Z,4.60
2023-02-28T19:06:30.276Z,4.63
2023-02-28T19:08:58.839Z,4.43
2023-02-28T19:11:26.375Z,4.83
2023-02-28T19:13:53.248Z,8.60
2023-02-28T19:16:21.853Z,8.50
2023-02-28T19:18:49.552Z,8.03
2023-02-28T19:21:18.377Z,5.47
2023-02-28T19:23:45.270Z,3.90
2023-02-28T19:26:21.171Z,6.60
2023-02-28T19:28:48.277Z,6.20
2023-02-28T19:31:26.275Z,6.77
2023-02-28T19:33:53.272Z,3.73
2023-02-28T19:36:21.492Z,5.70
2023-02-28T19:38:48.926Z,4.90
2023-02-28T19:41:17.058Z,5.07
2023-02-28T19:43:44.185Z,4.87
2023-02-28T19:46:12.493Z,5.77
2023-02-28T19:48:40.116Z,4.37
2023-02-28T19:51:09.795Z,6.10
2023-02-28T19:53:38.497Z,9.33
2023-02-28T19:56:06.324Z,11.63
2023-02-28T19:58:34.438Z,19.03
2023-02-28T20:01:15.786Z,23.57
2023-02-28T20:03:43.241Z,28.57
2023-02-28T20:06:13.814Z,34.17
2023-02-28T20:08:41.437Z,13.93
2023-02-28T20:11:14.983Z,12.33
2023-02-28T20:13:42.276Z,7.00
2023-02-28T20:16:11.585Z,6.20
2023-02-28T20:18:39.008Z,6.87
2023-02-28T20:21:08.496Z,8.30
2023-02-28T20:23:37.619Z,5.13
2023-02-28T20:26:04.781Z,6.10
2023-02-28T20:28:32.072Z,3.80
2023-02-28T20:31:00.753Z,5.13
2023-02-28T20:33:30.432Z,6.23
2023-02-28T20:36:01.607Z,4.43
2023-02-28T20:38:28.753Z,3.97
2023-02-28T20:40:58.767Z,8.80
2023-02-28T20:43:26.285Z,10.50
2023-02-28T20:45:54.569Z,11.77
2023-02-28T20:48:22.264Z,16.20
2023-02-28T20:50:54.094Z,15.00
2023-02-28T20:53:21.645Z,12.23
2023-02-28T20:56:00.370Z,11.97
2023-02-28T20:58:29.772Z,11.50
2023-02-28T21:01:27.275Z,9.30
2023-02-28T21:04:12.303Z,9.53
2023-02-28T21:06:43.050Z,10.37
2023-02-28T21:09:15.179Z,10.30
2023-02-28T21:11:42.433Z,10.90
2023-02-28T21:14:14.894Z,14.97
2023-02-28T21:16:42.475Z,7.17
2023-02-28T21:19:10.192Z,10.67
2023-02-28T21:21:44.910Z,16.23
2023-02-28T21:24:13.303Z,8.73
2023-02-28T21:26:41.631Z,9.63
2023-02-28T21:29:08.811Z,14.97
2023-02-28T21:31:36.714Z,26.90
2023-02-28T21:34:10.185Z,27.37
2023-02-28T21:36:40.227Z,31.20
2023-02-28T21:39:12.695Z,29.97
2023-02-28T21:41:39.630Z,20.33
2023-02-28T21:44:06.516Z,14.57
2023-02-28T21:46:34.183Z,11.77
2023-02-28T21:49:01.202Z,12.00
2023-02-28T21:51:33.486Z,6.67
2023-02-28T21:54:01.031Z,5.73
2023-02-28T21:56:31.121Z,4.50
2023-02-28T21:59:01.926Z,5.30
2023-02-28T22:01:37.186Z,6.47
2023-02-28T22:04:06.768Z,5.33
2023-02-28T22:06:39.960Z,8.00
2023-02-28T22:09:09.579Z,14.87
2023-02-28T22:11:38.001Z,9.90
2023-02-28T22:14:06.705Z,7.90
2023-02-28T22:16:50.069Z,8.53
2023-02-28T22:19:18.895Z,7.30
2023-02-28T22:21:47.318Z,7.10
2023-02-28T22:24:14.846Z,7.60
2023-02-28T22:26:41.921Z,8.47
2023-02-28T22:29:10.099Z,8.33
2023-02-28T22:31:37.330Z,7.00
2023-02-28T22:34:07.613Z,7.90
2023-02-28T22:36:34.611Z,8.90
2023-02-28T22:39:02.317Z,8.53
2023-02-28T22:41:30.346Z,9.93
2023-02-28T22:44:03.739Z,11.83
2023-02-28T22:46:32.847Z,8.13
2023-02-28T22:49:05.004Z,14.47
2023-02-28T22:51:35.494Z,13.83
2023-02-28T22:54:06.642Z,11.33
2023-02-28T22:56:36.681Z,8.93
2023-02-28T22:59:21.380Z,10.60
2023-02-28T23:01:55.952Z,10.60
2023-02-28T23:04:25.696Z,12.13
2023-02-28T23:06:53.222Z,10.20
2023-02-28T23:09:28.897Z,8.83
2023-02-28T23:12:21.310Z,6.93
2023-02-28T23:15:04.811Z,11.43
2023-02-28T23:17:32.375Z,10.47
2023-02-28T23:19:59.430Z,10.90
2023-02-28T23:22:30.850Z,9.53
2023-02-28T23:25:24.095Z,10.47
2023-02-28T23:27:55.586Z,9.90
2023-02-28T23:30:28.251Z,6.27
2023-02-28T23:33:02.026Z,7.20
2023-02-28T23:35:44.416Z,10.50
2023-02-28T23:38:14.614Z,6.90
2023-02-28T23:40:44.875Z,6.67
2023-02-28T23:45:57.973Z,9.27
2023-02-28T23:51:30.381Z,10.83
2023-02-28T23:54:03.290Z,9.37
2023-02-28T23:56:37.718Z,11.23
2023-02-28T23:59:14.461Z,11.17
